Time;durP1;ratioP1;P1;durP2;ratioP2;P2;SDS_P1;SDS_P2;PMS_P1;PMS_P2;Temp;Humidity;BMP_temperature;BMP_pressure;BME280_temperature;BME280_humidity;BME280_pressure;Samples;Min_cycle;Max_cycle;Signal;HPM_P1;HPM_P2
2023/03/26 00:01:57;;;;;;;9.88;3.03;;;;;;;;;;4901195;29;20404;-82
2023/03/26 00:04:24;;;;;;;21.45;3.55;;;;;;;;;;4901369;29;20238;-80
2023/03/26 00:06:50;;;;;;;14.07;3.55;;;;;;;;;;4900961;29;20234;-80
2023/03/26 00:09:16;;;;;;;14.70;3.10;;;;;;;;;;4900116;29;20276;-81
2023/03/26 00:11:45;;;;;;;18.80;3.50;;;;;;;;;;4900477;29;20193;-81
2023/03/26 00:14:12;;;;;;;15.32;3.58;;;;;;;;;;4900601;29;20174;-80
2023/03/26 00:16:39;;;;;;;15.43;3.80;;;;;;;;;;4900738;29;20190;-80
2023/03/26 00:19:05;;;;;;;17.58;3.33;;;;;;;;;;4900297;29;20247;-81
2023/03/26 00:21:31;;;;;;;22.30;4.05;;;;;;;;;;4900858;29;20667;-80
2023/03/26 00:23:58;;;;;;;13.60;3.20;;;;;;;;;;4900414;29;20187;-80
2023/03/26 00:26:24;;;;;;;15.18;3.40;;;;;;;;;;4900835;29;20171;-80
2023/03/26 00:28:51;;;;;;;18.98;3.28;;;;;;;;;;4900449;29;20266;-80
2023/03/26 00:31:17;;;;;;;17.98;3.45;;;;;;;;;;4900410;29;20178;-80
2023/03/26 00:33:43;;;;;;;10.15;3.78;;;;;;;;;;4900318;29;20192;-80
2023/03/26 00:36:13;;;;;;;11.47;3.17;;;;;;;;;;4900247;29;20514;-80
2023/03/26 00:38:39;;;;;;;17.25;3.28;;;;;;;;;;4900299;29;20442;-80
2023/03/26 00:41:16;;;;;;;17.90;3.30;;;;;;;;;;4900322;29;20523;-81
2023/03/26 00:43:43;;;;;;;20.15;4.88;;;;;;;;;;4900431;29;20193;-80
2023/03/26 00:46:09;;;;;;;16.70;4.05;;;;;;;;;;4899792;29;20194;-81
2023/03/26 00:48:37;;;;;;;15.68;3.25;;;;;;;;;;4899245;29;20660;-80
2023/03/26 00:51:04;;;;;;;10.82;3.10;;;;;;;;;;4899447;29;20234;-80
2023/03/26 00:53:30;;;;;;;16.63;3.17;;;;;;;;;;4899928;29;20274;-80
2023/03/26 00:55:59;;;;;;;14.48;3.40;;;;;;;;;;4899863;29;20673;-80
2023/03/26 00:58:25;;;;;;;28.50;4.93;;;;;;;;;;4900550;29;20171;-80
2023/03/26 01:00:56;;;;;;;14.10;3.30;;;;;;;;;;4900188;29;20187;-80
2023/03/26 01:03:23;;;;;;;14.65;3.00;;;;;;;;;;4900088;29;20640;-80
2023/03/26 01:05:53;;;;;;;13.63;3.70;;;;;;;;;;4899862;29;20246;-80
2023/03/26 01:08:37;;;;;;;15.48;2.78;;;;;;;;;;4899894;29;20193;-81
2023/03/26 01:11:06;;;;;;;13.63;3.40;;;;;;;;;;4899810;29;20542;-81
2023/03/26 01:13:36;;;;;;;21.25;4.22;;;;;;;;;;4899852;29;20282;-80
2023/03/26 01:16:06;;;;;;;19.30;4.00;;;;;;;;;;4899576;29;20536;-81
2023/03/26 01:18:39;;;;;;;11.50;3.85;;;;;;;;;;4899757;29;20274;-80
2023/03/26 01:21:08;;;;;;;18.58;3.45;;;;;;;;;;4900203;29;20191;-80
2023/03/26 01:23:40;;;;;;;15.10;3.90;;;;;;;;;;4900157;29;20626;-80
2023/03/26 01:26:22;;;;;;;8.00;3.00;;;;;;;;;;4899815;29;20186;-81
2023/03/26 01:28:50;;;;;;;12.20;3.15;;;;;;;;;;4900029;29;20230;-80
2023/03/26 01:31:37;;;;;;;13.45;2.95;;;;;;;;;;4899648;29;20201;-80
2023/03/26 01:34:22;;;;;;;15.07;4.20;;;;;;;;;;4899318;29;20193;-81
2023/03/26 01:36:48;;;;;;;15.75;3.40;;;;;;;;;;4899927;29;20175;-80
2023/03/26 01:39:33;;;;;;;15.73;2.70;;;;;;;;;;4899293;29;20200;-80
2023/03/26 01:42:07;;;;;;;13.88;4.65;;;;;;;;;;4899592;29;20708;-80
2023/03/26 01:45:11;;;;;;;13.88;3.22;;;;;;;;;;4899853;29;20191;-80
2023/03/26 01:47:38;;;;;;;18.20;3.33;;;;;;;;;;4823360;29;20276;-80
2023/03/26 01:50:04;;;;;;;14.88;2.95;;;;;;;;;;4823030;29;20249;-81
2023/03/26 01:52:30;;;;;;;10.77;3.15;;;;;;;;;;4859789;29;20551;-80
2023/03/26 01:54:56;;;;;;;15.50;3.38;;;;;;;;;;4899645;29;20696;-80
2023/03/26 01:57:25;;;;;;;12.82;3.10;;;;;;;;;;4899617;29;21036;-80
2023/03/26 02:00:15;;;;;;;15.48;3.90;;;;;;;;;;4901801;29;20186;-80
2023/03/26 02:02:45;;;;;;;10.63;3.20;;;;;;;;;;4868062;29;20246;-80
2023/03/26 02:05:33;;;;;;;11.55;2.95;;;;;;;;;;4902607;29;20261;-80
2023/03/26 02:08:02;;;;;;;9.50;2.63;;;;;;;;;;4902664;29;20242;-80
2023/03/26 02:10:29;;;;;;;13.88;3.38;;;;;;;;;;4902725;29;20301;-81
2023/03/26 02:12:56;;;;;;;11.63;3.95;;;;;;;;;;4902502;29;20532;-80
2023/03/26 02:15:22;;;;;;;15.35;3.00;;;;;;;;;;4902627;29;20179;-80
2023/03/26 02:17:48;;;;;;;12.15;3.03;;;;;;;;;;4902831;29;20535;-80
2023/03/26 02:20:15;;;;;;;13.93;4.28;;;;;;;;;;4901995;29;20638;-81
2023/03/26 02:22:44;;;;;;;14.38;3.30;;;;;;;;;;4902216;29;20214;-80
2023/03/26 02:25:20;;;;;;;10.60;2.78;;;;;;;;;;4902090;29;20191;-81
2023/03/26 02:27:46;;;;;;;12.13;2.55;;;;;;;;;;4902441;29;20658;-80
2023/03/26 02:30:15;;;;;;;19.55;3.40;;;;;;;;;;4902422;29;20210;-80
2023/03/26 02:32:42;;;;;;;14.82;3.25;;;;;;;;;;4902301;29;20244;-80
2023/03/26 02:35:09;;;;;;;11.23;3.20;;;;;;;;;;4902323;29;20278;-81
2023/03/26 02:37:35;;;;;;;15.50;3.33;;;;;;;;;;4902221;29;20197;-80
2023/03/26 02:40:01;;;;;;;13.82;2.97;;;;;;;;;;4902024;29;20658;-80
2023/03/26 02:42:27;;;;;;;7.97;2.58;;;;;;;;;;4902298;29;20186;-80
2023/03/26 02:44:54;;;;;;;9.17;2.70;;;;;;;;;;4901988;29;20183;-80
2023/03/26 02:47:20;;;;;;;16.83;3.17;;;;;;;;;;4902370;29;20507;-80
2023/03/26 02:49:46;;;;;;;9.03;2.50;;;;;;;;;;4902111;29;20253;-80
2023/03/26 02:52:15;;;;;;;12.65;2.95;;;;;;;;;;4902053;29;20443;-80
2023/03/26 02:54:41;;;;;;;10.00;3.42;;;;;;;;;;4902131;29;20681;-80
2023/03/26 02:57:07;;;;;;;6.63;2.57;;;;;;;;;;4902077;29;20269;-81
2023/03/26 02:59:33;;;;;;;9.37;2.60;;;;;;;;;;4902128;29;20448;-80
2023/03/26 03:01:59;;;;;;;9.97;2.40;;;;;;;;;;4901993;29;20416;-80
2023/03/26 03:04:25;;;;;;;15.15;3.15;;;;;;;;;;4901712;29;20419;-80
2023/03/26 03:06:51;;;;;;;14.70;2.70;;;;;;;;;;4901658;29;20180;-81
2023/03/26 03:09:18;;;;;;;10.52;2.85;;;;;;;;;;4901448;29;20639;-81
2023/03/26 03:11:45;;;;;;;7.97;2.45;;;;;;;;;;4901279;29;20183;-81
2023/03/26 03:14:11;;;;;;;8.88;2.17;;;;;;;;;;4901351;29;20179;-81
2023/03/26 03:16:37;;;;;;;9.60;2.80;;;;;;;;;;4901600;29;20186;-80
2023/03/26 03:19:04;;;;;;;9.87;2.50;;;;;;;;;;4901645;29;20833;-80
2023/03/26 03:21:30;;;;;;;10.18;2.30;;;;;;;;;;4901487;29;20432;-81
2023/03/26 03:23:57;;;;;;;12.43;2.15;;;;;;;;;;4901330;29;20175;-80
2023/03/26 03:26:26;;;;;;;8.32;2.20;;;;;;;;;;4900980;29;20188;-80
2023/03/26 03:28:53;;;;;;;7.63;2.58;;;;;;;;;;4901151;29;20175;-80
2023/03/26 03:31:20;;;;;;;6.95;2.42;;;;;;;;;;4900806;29;20319;-81
2023/03/26 03:33:46;;;;;;;8.80;2.38;;;;;;;;;;4900802;29;20650;-80
2023/03/26 03:36:18;;;;;;;10.20;3.00;;;;;;;;;;4900777;29;20191;-81
2023/03/26 03:38:44;;;;;;;16.08;2.70;;;;;;;;;;4901081;29;20400;-81
2023/03/26 03:41:10;;;;;;;12.50;2.60;;;;;;;;;;4900439;29;20191;-82
2023/03/26 03:43:36;;;;;;;11.07;2.30;;;;;;;;;;4900693;29;20416;-80
2023/03/26 03:46:03;;;;;;;12.83;3.10;;;;;;;;;;4900776;29;20525;-80
2023/03/26 03:48:29;;;;;;;11.27;2.60;;;;;;;;;;4900439;29;20422;-80
2023/03/26 03:50:55;;;;;;;11.20;2.65;;;;;;;;;;4900085;29;20242;-80
2023/03/26 03:53:24;;;;;;;19.77;3.03;;;;;;;;;;4900211;29;20554;-81
2023/03/26 03:55:53;;;;;;;11.63;2.30;;;;;;;;;;4900785;29;20187;-80
2023/03/26 03:58:21;;;;;;;14.40;2.72;;;;;;;;;;4900317;29;20198;-80
2023/03/26 04:00:59;;;;;;;10.93;3.40;;;;;;;;;;4900460;29;20675;-80
2023/03/26 04:03:26;;;;;;;12.65;2.83;;;;;;;;;;4900114;29;20193;-80
2023/03/26 04:05:53;;;;;;;8.32;2.47;;;;;;;;;;4900917;29;20210;-80
2023/03/26 04:08:20;;;;;;;16.17;2.88;;;;;;;;;;4900784;29;20273;-80
2023/03/26 04:10:46;;;;;;;10.48;3.38;;;;;;;;;;4900312;29;20746;-80
2023/03/26 04:13:12;;;;;;;13.90;3.30;;;;;;;;;;4900352;29;20545;-81
2023/03/26 04:15:39;;;;;;;8.18;2.53;;;;;;;;;;4900283;29;20631;-80
2023/03/26 04:18:09;;;;;;;11.77;3.70;;;;;;;;;;4900341;29;20175;-80
2023/03/26 04:20:36;;;;;;;10.50;2.50;;;;;;;;;;4900022;29;20678;-80
2023/03/26 04:23:02;;;;;;;9.35;2.50;;;;;;;;;;4900216;29;20631;-80
2023/03/26 04:25:29;;;;;;;11.95;2.55;;;;;;;;;;4899685;29;20265;-80
2023/03/26 04:27:57;;;;;;;10.98;3.65;;;;;;;;;;4900239;29;20191;-80
2023/03/26 04:30:26;;;;;;;16.60;3.10;;;;;;;;;;4899772;29;20225;-80
2023/03/26 04:32:57;;;;;;;10.70;3.40;;;;;;;;;;4900462;29;20191;-80
2023/03/26 04:35:23;;;;;;;14.15;3.17;;;;;;;;;;4900138;29;20189;-80
2023/03/26 04:37:49;;;;;;;10.70;3.05;;;;;;;;;;4900349;29;20595;-80
2023/03/26 04:40:16;;;;;;;12.97;3.80;;;;;;;;;;4900098;29;20198;-81
2023/03/26 04:42:44;;;;;;;12.32;3.22;;;;;;;;;;4900250;29;20419;-80
2023/03/26 04:45:11;;;;;;;11.65;2.80;;;;;;;;;;4900060;29;20604;-80
2023/03/26 04:47:37;;;;;;;12.40;3.08;;;;;;;;;;4900178;29;20194;-80
2023/03/26 04:50:08;;;;;;;14.60;3.97;;;;;;;;;;4900140;29;20298;-80
2023/03/26 04:52:34;;;;;;;19.40;4.15;;;;;;;;;;4899589;29;20193;-80
2023/03/26 04:55:00;;;;;;;16.00;3.22;;;;;;;;;;4899957;29;20182;-80
2023/03/26 04:57:26;;;;;;;11.68;3.08;;;;;;;;;;4899651;29;20178;-80
2023/03/26 04:59:52;;;;;;;12.53;3.47;;;;;;;;;;4900386;29;20542;-80
2023/03/26 05:02:19;;;;;;;11.23;3.15;;;;;;;;;;4899777;29;20414;-81
2023/03/26 05:04:45;;;;;;;16.05;3.55;;;;;;;;;;4899917;29;20190;-80
2023/03/26 05:07:14;;;;;;;13.30;3.70;;;;;;;;;;4899857;29;20718;-80
2023/03/26 05:09:40;;;;;;;10.38;3.05;;;;;;;;;;4899799;29;20237;-80
2023/03/26 05:12:06;;;;;;;11.73;3.22;;;;;;;;;;4899402;29;20541;-81
2023/03/26 05:14:34;;;;;;;15.25;3.13;;;;;;;;;;4899608;29;20183;-81
2023/03/26 05:17:04;;;;;;;13.23;3.40;;;;;;;;;;4906828;29;20194;-82
2023/03/26 05:19:30;;;;;;;17.08;3.67;;;;;;;;;;4898352;29;20656;-84
2023/03/26 05:21:56;;;;;;;11.05;2.97;;;;;;;;;;4910141;29;20190;-84
2023/03/26 05:24:23;;;;;;;10.07;4.60;;;;;;;;;;4917338;29;20183;-84
2023/03/26 05:26:49;;;;;;;13.00;3.50;;;;;;;;;;4911716;29;20189;-83
2023/03/26 05:29:16;;;;;;;8.30;3.80;;;;;;;;;;4917446;29;20218;-86
2023/03/26 05:31:43;;;;;;;8.57;2.92;;;;;;;;;;4912044;29;20194;-83
2023/03/26 05:34:09;;;;;;;12.23;3.92;;;;;;;;;;4919068;29;20615;-83
2023/03/26 05:36:35;;;;;;;10.48;3.13;;;;;;;;;;4921227;29;20186;-83
2023/03/26 05:39:02;;;;;;;11.60;3.53;;;;;;;;;;4921214;29;20277;-83
2023/03/26 05:41:28;;;;;;;9.20;2.78;;;;;;;;;;4920978;29;20178;-83
2023/03/26 05:43:54;;;;;;;11.32;3.40;;;;;;;;;;4921318;29;20186;-83
2023/03/26 05:46:21;;;;;;;12.60;3.50;;;;;;;;;;4920727;29;20647;-83
2023/03/26 05:48:48;;;;;;;17.08;4.38;;;;;;;;;;4920112;29;20194;-83
2023/03/26 05:51:17;;;;;;;10.73;3.90;;;;;;;;;;4910669;29;20233;-82
2023/03/26 05:53:43;;;;;;;9.90;3.22;;;;;;;;;;4907559;29;20294;-83
2023/03/26 05:56:09;;;;;;;10.20;2.90;;;;;;;;;;4901740;29;20533;-83
2023/03/26 05:58:36;;;;;;;14.90;4.15;;;;;;;;;;4901311;29;20640;-83
2023/03/26 06:01:07;;;;;;;13.25;3.47;;;;;;;;;;4912014;29;20194;-83
2023/03/26 06:03:34;;;;;;;27.75;4.40;;;;;;;;;;4903358;29;20261;-82
2023/03/26 06:06:00;;;;;;;11.30;2.90;;;;;;;;;;4913555;29;20253;-82
2023/03/26 06:08:26;;;;;;;9.38;2.60;;;;;;;;;;4901115;29;20722;-82
2023/03/26 06:10:59;;;;;;;14.55;4.00;;;;;;;;;;4884359;29;20211;-82
2023/03/26 06:13:25;;;;;;;8.85;2.70;;;;;;;;;;4906415;29;20190;-82
2023/03/26 06:15:51;;;;;;;10.73;3.25;;;;;;;;;;4884789;29;20189;-82
2023/03/26 06:18:19;;;;;;;11.07;3.05;;;;;;;;;;4901754;29;20548;-82
2023/03/26 06:20:45;;;;;;;12.43;3.20;;;;;;;;;;4901841;29;20183;-83
2023/03/26 06:23:11;;;;;;;19.35;3.22;;;;;;;;;;4901907;29;20206;-83
2023/03/26 06:25:37;;;;;;;12.27;3.33;;;;;;;;;;4901132;29;20650;-83
2023/03/26 06:28:04;;;;;;;14.15;3.67;;;;;;;;;;4901697;29;20303;-82
2023/03/26 06:30:30;;;;;;;9.90;3.58;;;;;;;;;;4900997;29;20214;-83
2023/03/26 06:32:56;;;;;;;8.30;4.70;;;;;;;;;;4901461;29;20592;-83
2023/03/26 06:35:23;;;;;;;9.00;3.10;;;;;;;;;;4900947;29;20186;-83
2023/03/26 06:37:49;;;;;;;16.00;4.15;;;;;;;;;;4901251;29;20187;-83
2023/03/26 06:40:15;;;;;;;19.45;3.42;;;;;;;;;;4884416;29;20289;-82
2023/03/26 06:42:41;;;;;;;8.50;2.97;;;;;;;;;;4901062;29;20261;-83
2023/03/26 06:45:07;;;;;;;11.57;3.78;;;;;;;;;;4900146;29;20647;-83
2023/03/26 06:47:34;;;;;;;13.73;3.05;;;;;;;;;;4900423;29;20265;-83
2023/03/26 06:50:00;;;;;;;9.95;4.07;;;;;;;;;;4900640;29;20238;-83
2023/03/26 06:52:26;;;;;;;11.98;3.45;;;;;;;;;;4900799;29;20198;-83
2023/03/26 06:54:52;;;;;;;15.43;4.45;;;;;;;;;;4900852;29;20182;-82
2023/03/26 06:57:18;;;;;;;24.15;3.38;;;;;;;;;;4900979;29;20537;-83
2023/03/26 06:59:44;;;;;;;17.23;3.35;;;;;;;;;;4900489;29;20181;-83
2023/03/26 07:02:10;;;;;;;11.43;3.20;;;;;;;;;;4900530;29;20242;-84
2023/03/26 07:04:37;;;;;;;12.18;4.38;;;;;;;;;;4900558;29;20178;-84
2023/03/26 07:07:03;;;;;;;11.70;3.75;;;;;;;;;;4900650;29;20206;-84
2023/03/26 07:09:29;;;;;;;16.42;3.83;;;;;;;;;;4900597;29;20263;-84
2023/03/26 07:11:56;;;;;;;13.32;3.70;;;;;;;;;;4900963;29;20182;-84
2023/03/26 07:14:23;;;;;;;13.63;4.90;;;;;;;;;;4900811;29;20191;-85
2023/03/26 07:16:49;;;;;;;15.57;4.20;;;;;;;;;;4900617;29;20187;-83
2023/03/26 07:19:15;;;;;;;12.57;4.30;;;;;;;;;;4900699;29;20194;-83
2023/03/26 07:21:42;;;;;;;13.77;4.53;;;;;;;;;;4900015;29;20196;-84
2023/03/26 07:24:11;;;;;;;10.50;3.88;;;;;;;;;;4900831;29;20269;-83
2023/03/26 07:26:56;;;;;;;12.70;4.63;;;;;;;;;;4900374;29;20533;-84
2023/03/26 07:29:22;;;;;;;13.07;4.07;;;;;;;;;;4900145;29;20266;-84
2023/03/26 07:32:20;;;;;;;13.93;4.45;;;;;;;;;;4900044;29;20178;-84
2023/03/26 07:34:55;;;;;;;6.55;3.30;;;;;;;;;;4878580;29;20197;-84
2023/03/26 07:37:39;;;;;;;10.65;3.35;;;;;;;;;;4900303;29;20173;-84
2023/03/26 07:40:08;;;;;;;17.48;3.78;;;;;;;;;;4899954;29;20187;-84
2023/03/26 07:42:45;;;;;;;12.18;4.30;;;;;;;;;;4899901;29;20175;-84
2023/03/26 07:45:17;;;;;;;13.18;4.15;;;;;;;;;;4900029;29;20655;-84
2023/03/26 07:47:43;;;;;;;12.15;4.07;;;;;;;;;;4899574;29;20238;-84
2023/03/26 07:50:14;;;;;;;16.67;3.28;;;;;;;;;;4899630;29;20249;-84
2023/03/26 07:52:40;;;;;;;21.50;4.22;;;;;;;;;;4899720;29;20196;-84
2023/03/26 07:55:07;;;;;;;15.65;3.17;;;;;;;;;;4899545;29;20198;-84
2023/03/26 07:57:44;;;;;;;14.43;3.70;;;;;;;;;;4882367;29;20763;-85
2023/03/26 08:00:14;;;;;;;6.35;3.45;;;;;;;;;;4900087;29;20217;-87
2023/03/26 08:02:40;;;;;;;17.33;4.10;;;;;;;;;;4900315;29;20206;-87
2023/03/26 08:05:09;;;;;;;16.90;4.43;;;;;;;;;;4900556;29;20171;-87
2023/03/26 08:07:50;;;;;;;11.05;4.63;;;;;;;;;;4900420;29;20187;-87
2023/03/26 08:10:25;;;;;;;15.35;4.30;;;;;;;;;;4900232;29;20210;-87
2023/03/26 08:12:51;;;;;;;12.52;4.10;;;;;;;;;;4900267;29;20178;-86
2023/03/26 08:15:24;;;;;;;13.50;3.40;;;;;;;;;;4900043;29;20547;-80
2023/03/26 08:17:59;;;;;;;13.68;3.53;;;;;;;;;;4900098;29;20181;-81
2023/03/26 08:20:27;;;;;;;13.13;3.13;;;;;;;;;;4900373;29;20190;-80
2023/03/26 08:22:57;;;;;;;13.43;3.92;;;;;;;;;;4900477;29;20193;-80
2023/03/26 08:25:49;;;;;;;10.70;3.00;;;;;;;;;;4899999;29;20227;-81
2023/03/26 08:28:21;;;;;;;12.95;3.95;;;;;;;;;;4885067;29;20272;-81
2023/03/26 08:30:47;;;;;;;12.07;2.97;;;;;;;;;;4899667;29;20206;-81
2023/03/26 08:33:20;;;;;;;17.10;4.10;;;;;;;;;;4899872;29;20179;-80
2023/03/26 08:35:47;;;;;;;8.40;3.28;;;;;;;;;;4900018;29;20187;-81
2023/03/26 08:38:14;;;;;;;11.18;3.45;;;;;;;;;;4899880;29;20543;-81
2023/03/26 08:40:57;;;;;;;7.32;4.10;;;;;;;;;;4899452;29;20583;-82
2023/03/26 08:43:41;;;;;;;8.07;2.78;;;;;;;;;;4900085;29;20230;-81
2023/03/26 08:46:07;;;;;;;12.10;3.70;;;;;;;;;;4899874;29;20187;-81
2023/03/26 08:48:47;;;;;;;10.60;3.40;;;;;;;;;;4899431;29;20186;-82
2023/03/26 08:51:13;;;;;;;8.93;2.80;;;;;;;;;;4899620;29;20489;-81
2023/03/26 08:53:45;;;;;;;11.70;3.28;;;;;;;;;;4899689;29;20707;-81
2023/03/26 08:56:19;;;;;;;10.07;2.53;;;;;;;;;;4899633;29;20600;-81
2023/03/26 08:58:53;;;;;;;14.13;3.20;;;;;;;;;;4899312;29;20183;-82
2023/03/26 09:01:31;;;;;;;9.60;2.60;;;;;;;;;;4899369;29;20171;-81
2023/03/26 09:04:12;;;;;;;6.05;2.78;;;;;;;;;;4899521;29;20242;-81
2023/03/26 09:06:49;;;;;;;9.63;2.60;;;;;;;;;;4898719;29;20198;-81
2023/03/26 09:09:34;;;;;;;11.10;2.45;;;;;;;;;;4901130;29;20269;-82
2023/03/26 09:12:18;;;;;;;6.78;2.05;;;;;;;;;;4903269;29;20186;-82
2023/03/26 09:15:03;;;;;;;2.72;1.92;;;;;;;;;;4902860;29;20183;-82
2023/03/26 09:17:48;;;;;;;10.15;2.83;;;;;;;;;;4903273;29;20230;-84
2023/03/26 09:20:32;;;;;;;10.05;2.97;;;;;;;;;;4903306;29;20182;-82
2023/03/26 09:23:16;;;;;;;8.35;2.92;;;;;;;;;;4903027;29;20518;-82
2023/03/26 09:25:52;;;;;;;8.77;3.70;;;;;;;;;;4916034;29;20189;-82
2023/03/26 09:28:30;;;;;;;11.70;3.15;;;;;;;;;;4904242;29;20178;-82
2023/03/26 09:31:14;;;;;;;16.55;4.75;;;;;;;;;;4909212;29;20272;-82
2023/03/26 09:33:41;;;;;;;10.95;3.67;;;;;;;;;;4910071;29;20187;-82
2023/03/26 09:36:22;;;;;;;11.73;5.00;;;;;;;;;;4911211;29;20190;-82
2023/03/26 09:39:02;;;;;;;4.68;3.22;;;;;;;;;;4912186;29;20186;-82
2023/03/26 09:41:41;;;;;;;8.75;4.43;;;;;;;;;;4912809;29;20260;-81
2023/03/26 09:44:26;;;;;;;9.20;3.08;;;;;;;;;;4914861;29;20645;-81
2023/03/26 09:47:10;;;;;;;10.10;3.90;;;;;;;;;;4911721;29;20554;-82
2023/03/26 09:49:39;;;;;;;6.47;2.80;;;;;;;;;;4901233;29;20202;-82
2023/03/26 09:52:05;;;;;;;7.60;3.33;;;;;;;;;;4909837;29;20635;-81
2023/03/26 09:54:56;;;;;;;5.13;2.38;;;;;;;;;;4911662;29;20654;-84
2023/03/26 09:57:28;;;;;;;4.57;2.50;;;;;;;;;;4899981;29;20265;-81
2023/03/26 10:00:14;;;;;;;5.05;2.60;;;;;;;;;;4901698;29;20186;-81
2023/03/26 10:03:12;;;;;;;5.00;2.13;;;;;;;;;;4907299;29;20182;-82
2023/03/26 10:05:55;;;;;;;5.53;2.40;;;;;;;;;;4864477;29;20538;-81
2023/03/26 10:08:23;;;;;;;5.38;1.55;;;;;;;;;;4913803;29;20631;-81
2023/03/26 10:10:49;;;;;;;11.88;2.15;;;;;;;;;;4901580;29;20249;-82
2023/03/26 10:13:15;;;;;;;4.50;2.13;;;;;;;;;;4908016;29;20214;-81
2023/03/26 10:15:47;;;;;;;6.30;2.70;;;;;;;;;;4901344;29;20430;-82
2023/03/26 10:18:24;;;;;;;4.15;2.65;;;;;;;;;;4901798;29;20836;-82
2023/03/26 10:21:09;;;;;;;10.45;2.60;;;;;;;;;;4901930;29;20197;-81
2023/03/26 10:23:35;;;;;;;11.07;2.80;;;;;;;;;;4902129;29;20211;-82
2023/03/26 10:26:07;;;;;;;7.80;3.08;;;;;;;;;;4902070;29;20179;-82
2023/03/26 10:28:33;;;;;;;7.82;3.83;;;;;;;;;;4901949;29;20238;-82
2023/03/26 10:31:18;;;;;;;12.23;3.30;;;;;;;;;;4901893;29;20667;-83
2023/03/26 10:33:47;;;;;;;9.98;3.30;;;;;;;;;;4901911;29;20423;-82
2023/03/26 10:36:49;;;;;;;6.32;3.45;;;;;;;;;;4901821;29;20179;-82
2023/03/26 10:39:21;;;;;;;8.38;3.20;;;;;;;;;;4862258;29;20676;-81
2023/03/26 10:41:58;;;;;;;10.13;3.13;;;;;;;;;;4895294;29;20199;-82
2023/03/26 10:44:44;;;;;;;5.88;2.58;;;;;;;;;;4904257;29;20265;-82
2023/03/26 10:47:26;;;;;;;5.68;2.65;;;;;;;;;;4901296;29;20226;-83
2023/03/26 10:49:52;;;;;;;5.80;2.65;;;;;;;;;;4901171;29;20580;-83
2023/03/26 10:52:21;;;;;;;5.93;3.13;;;;;;;;;;4901808;29;20175;-83
2023/03/26 10:55:07;;;;;;;6.70;3.10;;;;;;;;;;4901265;29;20506;-83
2023/03/26 10:57:40;;;;;;;4.97;3.33;;;;;;;;;;4902104;29;20628;-82
2023/03/26 11:00:25;;;;;;;7.88;2.90;;;;;;;;;;4901737;29;20187;-82
2023/03/26 11:03:07;;;;;;;5.38;3.03;;;;;;;;;;4901391;29;20544;-82
2023/03/26 11:05:32;;;;;;;6.47;2.97;;;;;;;;;;4901694;29;20179;-82
2023/03/26 11:08:04;;;;;;;4.13;2.70;;;;;;;;;;4900999;29;20183;-83
2023/03/26 11:10:39;;;;;;;5.90;3.42;;;;;;;;;;4901165;29;20470;-82
2023/03/26 11:13:24;;;;;;;9.73;3.10;;;;;;;;;;4901609;29;20242;-82
2023/03/26 11:16:02;;;;;;;5.43;2.75;;;;;;;;;;4901344;29;20540;-82
2023/03/26 11:18:35;;;;;;;7.28;2.60;;;;;;;;;;4900986;29;20187;-81
2023/03/26 11:21:01;;;;;;;4.75;2.63;;;;;;;;;;4900885;29;20186;-81
2023/03/26 11:23:38;;;;;;;6.70;3.20;;;;;;;;;;4900800;29;20175;-82
2023/03/26 11:26:07;;;;;;;6.13;3.08;;;;;;;;;;4901343;29;20407;-81
2023/03/26 11:29:06;;;;;;;5.70;4.00;;;;;;;;;;4900777;29;20179;-81
2023/03/26 11:31:31;;;;;;;5.65;2.88;;;;;;;;;;4878483;29;20726;-81
2023/03/26 11:34:02;;;;;;;7.13;2.90;;;;;;;;;;4900725;29;20219;-83
2023/03/26 11:36:34;;;;;;;7.55;3.70;;;;;;;;;;4901081;29;20769;-81
2023/03/26 11:39:03;;;;;;;3.83;2.92;;;;;;;;;;4900115;29;20183;-91
2023/03/26 11:41:30;;;;;;;8.82;3.33;;;;;;;;;;4900431;29;20213;-82
2023/03/26 11:43:58;;;;;;;3.30;3.00;;;;;;;;;;4910234;29;20217;-82
2023/03/26 11:46:25;;;;;;;11.18;4.65;;;;;;;;;;4899895;29;20206;-81
2023/03/26 11:49:05;;;;;;;5.93;4.05;;;;;;;;;;4910495;29;20197;-81
2023/03/26 11:51:38;;;;;;;5.85;4.03;;;;;;;;;;4916577;29;20283;-80
2023/03/26 11:54:06;;;;;;;4.60;3.10;;;;;;;;;;4919481;29;20182;-81
2023/03/26 11:56:40;;;;;;;4.68;3.47;;;;;;;;;;4919659;29;20541;-81
2023/03/26 11:59:12;;;;;;;8.25;3.13;;;;;;;;;;4919493;29;20535;-80
2023/03/26 12:01:42;;;;;;;6.15;3.75;;;;;;;;;;4919319;29;20202;-81
2023/03/26 12:04:15;;;;;;;5.50;4.07;;;;;;;;;;4919095;29;20189;-81
2023/03/26 12:06:55;;;;;;;3.88;3.13;;;;;;;;;;4918944;29;20647;-81
2023/03/26 12:09:21;;;;;;;6.18;3.70;;;;;;;;;;4919923;29;20194;-80
2023/03/26 12:11:48;;;;;;;37.15;19.35;;;;;;;;;;4919163;29;20277;-81
2023/03/26 12:14:18;;;;;;;40.10;20.50;;;;;;;;;;4919335;29;20658;-81
2023/03/26 12:17:08;;;;;;;13.40;8.10;;;;;;;;;;4919124;29;20217;-81
2023/03/26 12:19:39;;;;;;;19.48;12.18;;;;;;;;;;4919129;29;20186;-81
2023/03/26 12:22:05;;;;;;;9.27;3.88;;;;;;;;;;4919157;29;20189;-81
2023/03/26 12:24:33;;;;;;;7.15;2.80;;;;;;;;;;4919084;29;20206;-81
2023/03/26 12:27:01;;;;;;;3.17;1.10;;;;;;;;;;4918101;29;20178;-83
2023/03/26 12:29:28;;;;;;;1.33;0.60;;;;;;;;;;4915357;29;20207;-82
2023/03/26 12:31:56;;;;;;;1.08;0.70;;;;;;;;;;4915346;29;20193;-82
2023/03/26 12:34:24;;;;;;;1.13;0.93;;;;;;;;;;4918721;29;20183;-83
2023/03/26 12:36:51;;;;;;;0.70;0.63;;;;;;;;;;4918320;29;20643;-83
2023/03/26 12:39:33;;;;;;;0.85;0.70;;;;;;;;;;4918847;29;20201;-82
2023/03/26 12:42:00;;;;;;;1.00;0.70;;;;;;;;;;4903099;29;20196;-82
2023/03/26 12:44:26;;;;;;;2.10;0.88;;;;;;;;;;4900083;29;20178;-82
2023/03/26 12:47:06;;;;;;;1.80;1.70;;;;;;;;;;4901355;29;20650;-82
2023/03/26 12:49:32;;;;;;;5.88;5.35;;;;;;;;;;4911611;29;20525;-82
2023/03/26 12:52:09;;;;;;;3.85;1.02;;;;;;;;;;4918363;29;20182;-81
2023/03/26 12:54:44;;;;;;;1.70;1.60;;;;;;;;;;4918337;29;20525;-81
2023/03/26 12:57:21;;;;;;;0.90;0.80;;;;;;;;;;4918640;29;20176;-82
2023/03/26 13:00:09;;;;;;;2.45;1.15;;;;;;;;;;4918415;29;20533;-82
2023/03/26 13:02:57;;;;;;;3.15;1.60;;;;;;;;;;4906694;29;20186;-81
2023/03/26 13:05:30;;;;;;;3.20;1.77;;;;;;;;;;4918972;29;20242;-81
2023/03/26 13:08:11;;;;;;;2.80;2.60;;;;;;;;;;4918469;29;20261;-81
2023/03/26 13:10:46;;;;;;;4.47;1.65;;;;;;;;;;4917663;29;20236;-81
2023/03/26 13:13:25;;;;;;;1.83;1.65;;;;;;;;;;4918330;29;20186;-81
2023/03/26 13:15:58;;;;;;;3.38;2.33;;;;;;;;;;4918150;29;20174;-81
2023/03/26 13:18:31;;;;;;;4.10;2.70;;;;;;;;;;4918451;29;20182;-81
2023/03/26 13:20:59;;;;;;;6.95;2.78;;;;;;;;;;4918207;29;20663;-81
2023/03/26 13:23:30;;;;;;;4.90;3.30;;;;;;;;;;4918654;29;20183;-81
2023/03/26 13:26:05;;;;;;;7.35;3.42;;;;;;;;;;4917976;29;20186;-81
2023/03/26 13:28:43;;;;;;;4.85;3.10;;;;;;;;;;4918872;29;20182;-81
2023/03/26 13:31:20;;;;;;;4.72;2.45;;;;;;;;;;4918434;29;20713;-80
2023/03/26 13:33:58;;;;;;;6.28;3.00;;;;;;;;;;4918219;29;20178;-81
2023/03/26 13:36:34;;;;;;;2.78;2.22;;;;;;;;;;4918238;29;20185;-80
2023/03/26 13:39:07;;;;;;;14.95;10.55;;;;;;;;;;4918511;29;20171;-81
2023/03/26 13:41:46;;;;;;;5.55;3.58;;;;;;;;;;4918906;29;20219;-81
2023/03/26 13:44:17;;;;;;;5.35;2.60;;;;;;;;;;4918708;29;20586;-81
2023/03/26 13:46:48;;;;;;;9.25;7.10;;;;;;;;;;4918148;29;20261;-81
2023/03/26 13:49:16;;;;;;;5.93;3.17;;;;;;;;;;4918599;29;20186;-82
2023/03/26 13:51:44;;;;;;;3.80;3.33;;;;;;;;;;4917824;29;20290;-82
2023/03/26 13:54:29;;;;;;;4.50;2.92;;;;;;;;;;4901143;29;20182;-82
2023/03/26 13:57:15;;;;;;;8.80;6.53;;;;;;;;;;4921096;29;20565;-83
2023/03/26 13:59:49;;;;;;;6.95;4.50;;;;;;;;;;4879994;29;20197;-82
2023/03/26 14:02:30;;;;;;;5.80;2.92;;;;;;;;;;4909128;29;20196;-82
2023/03/26 14:05:00;;;;;;;10.23;6.85;;;;;;;;;;4902187;29;20218;-82
2023/03/26 14:07:32;;;;;;;7.20;2.80;;;;;;;;;;4893020;29;20195;-84
2023/03/26 14:09:58;;;;;;;3.83;3.20;;;;;;;;;;4900625;29;20446;-82
2023/03/26 14:12:43;;;;;;;3.00;2.40;;;;;;;;;;4901939;29;20687;-82
2023/03/26 14:15:21;;;;;;;3.75;2.95;;;;;;;;;;4900923;29;20510;-82
2023/03/26 14:17:50;;;;;;;16.75;11.60;;;;;;;;;;4901680;29;20235;-86
2023/03/26 14:20:18;;;;;;;8.38;5.00;;;;;;;;;;4902284;29;20190;-81
2023/03/26 14:22:44;;;;;;;16.45;10.15;;;;;;;;;;4901500;29;20644;-81
2023/03/26 14:25:13;;;;;;;4.47;2.97;;;;;;;;;;4901765;29;20186;-80
2023/03/26 14:27:43;;;;;;;14.18;9.23;;;;;;;;;;4901928;29;20493;-81
2023/03/26 14:30:27;;;;;;;3.53;2.75;;;;;;;;;;4901051;29;20670;-80
2023/03/26 14:33:13;;;;;;;7.07;4.32;;;;;;;;;;4901855;29;20223;-80
2023/03/26 14:35:57;;;;;;;4.97;3.47;;;;;;;;;;4901408;29;20190;-81
2023/03/26 14:38:31;;;;;;;7.55;5.28;;;;;;;;;;4902130;29;20703;-80
2023/03/26 14:40:57;;;;;;;3.97;2.30;;;;;;;;;;4902074;29;20190;-80
2023/03/26 14:43:23;;;;;;;6.25;2.90;;;;;;;;;;4901029;29;20254;-80
2023/03/26 14:45:55;;;;;;;2.60;2.03;;;;;;;;;;4901820;29;20278;-80
2023/03/26 14:48:30;;;;;;;3.58;1.92;;;;;;;;;;4885328;29;20939;-80
2023/03/26 14:51:02;;;;;;;2.60;1.73;;;;;;;;;;4900328;29;20241;-79
2023/03/26 14:53:36;;;;;;;3.78;1.52;;;;;;;;;;4902204;29;20171;-80
2023/03/26 14:56:18;;;;;;;3.72;1.90;;;;;;;;;;4901419;29;20182;-80
2023/03/26 14:58:50;;;;;;;1.90;1.60;;;;;;;;;;4901051;29;20596;-80
2023/03/26 15:01:16;;;;;;;3.13;1.60;;;;;;;;;;4901604;29;20190;-79